Terminal Aerodrome Forecast
Issued by NWS Wilmington, OH

Current Version | Previous Version | Graphics & Text | Print | Product List | Glossary On
Versions: 1 2 3 4 5 6 7 8 9 10 11 12 13 14 15 16 17 18 19
180
FTUS41 KILN 281632 AAD
TAFDAY
TAF AMD
KDAY 281632Z 2817/2912 24007KT P6SM SCT013 BKN080 BKN180
     FM281900 23005KT P6SM VCTS BKN040CB BKN150
     FM290000 23005KT P6SM BKN090
     FM290800 VRB02KT 3SM BR BKN150=

USA.gov is the U.S. government's official web portal to all federal, state and local government web resources and services.